TimeEDT,TemperatureF,Dew PointF,Humidity,Sea Level PressureIn,VisibilityMPH,Wind Direction,Wind SpeedMPH,Gust SpeedMPH,PrecipitationIn,Events,Conditions,WindDirDegrees,DateUTC
12:51 AM,35.1,32.0,89,29.86,10.0,Calm,Calm,-,N/A,,Clear,0,2012-10-17 04:51:00
1:51 AM,39.9,30.9,70,29.88,10.0,Variable,3.5,-,N/A,,Clear,0,2012-10-17 05:51:00
2:51 AM,37.0,30.9,79,29.87,10.0,Calm,Calm,-,N/A,,Clear,0,2012-10-17 06:51:00
3:51 AM,36.0,30.9,82,29.88,10.0,Calm,Calm,-,N/A,,Clear,0,2012-10-17 07:51:00
4:51 AM,33.1,30.0,89,29.88,10.0,NW,3.5,-,N/A,,Clear,310,2012-10-17 08:51:00
5:51 AM,34.0,30.0,85,29.91,10.0,Calm,Calm,-,N/A,,Clear,0,2012-10-17 09:51:00
6:51 AM,30.9,28.0,89,29.91,10.0,Calm,Calm,-,N/A,,Clear,0,2012-10-17 10:51:00
7:51 AM,35.1,30.9,85,29.93,10.0,NNW,3.5,-,N/A,,Clear,330,2012-10-17 11:51:00
9:51 AM,48.9,34.0,56,29.95,10.0,Calm,Calm,-,N/A,,Clear,0,2012-10-17 13:51:00
11:51 AM,53.1,33.1,47,29.94,10.0,Calm,Calm,-,N/A,,Clear,0,2012-10-17 15:51:00
12:51 PM,55.9,28.9,36,29.92,10.0,Calm,Calm,-,N/A,,Clear,0,2012-10-17 16:51:00
1:51 PM,57.9,32.0,37,29.90,10.0,Calm,Calm,-,N/A,,Clear,0,2012-10-17 17:51:00
2:51 PM,59.0,33.1,38,29.90,10.0,Calm,Calm,-,N/A,,Clear,0,2012-10-17 18:51:00
3:51 PM,61.0,34.0,36,29.90,10.0,Calm,Calm,-,N/A,,Clear,0,2012-10-17 19:51:00
4:51 PM,60.1,33.1,36,29.92,10.0,Calm,Calm,-,N/A,,Clear,0,2012-10-17 20:51:00
5:51 PM,55.9,35.1,45,29.93,10.0,Calm,Calm,-,N/A,,Clear,0,2012-10-17 21:51:00
6:51 PM,51.1,39.0,63,29.96,10.0,South,3.5,-,N/A,,Clear,170,2012-10-17 22:51:00
7:51 PM,48.9,39.9,71,29.97,10.0,Calm,Calm,-,N/A,,Clear,0,2012-10-17 23:51:00
8:51 PM,46.0,39.0,76,29.98,10.0,Calm,Calm,-,N/A,,Clear,0,2012-10-18 00:51:00
9:51 PM,44.1,39.0,82,29.99,10.0,Calm,Calm,-,N/A,,Clear,0,2012-10-18 01:51:00
10:51 PM,42.1,37.9,85,29.99,10.0,NW,3.5,-,N/A,,Partly Cloudy,310,2012-10-18 02:51:00
11:51 PM,42.1,37.9,85,30.00,10.0,Calm,Calm,-,N/A,,Mostly Cloudy,0,2012-10-18 03:51:00